sensor_id;sensor_type;location;lat;lon;timestamp;P1;durP1;ratioP1;P2;durP2;ratioP2
13868;SDS011;7004;48.206;16.402;2024-02-14T00:00:10;5.87;;;3.87;;
13868;SDS011;7004;48.206;16.402;2024-02-14T00:02:45;6.43;;;4.20;;
13868;SDS011;7004;48.206;16.402;2024-02-14T00:05:15;6.03;;;3.60;;
13868;SDS011;7004;48.206;16.402;2024-02-14T00:07:42;6.20;;;3.70;;
13868;SDS011;7004;48.206;16.402;2024-02-14T00:10:08;4.70;;;3.43;;
13868;SDS011;7004;48.206;16.402;2024-02-14T00:12:38;7.53;;;4.17;;
13868;SDS011;7004;48.206;16.402;2024-02-14T00:15:04;6.17;;;3.87;;
13868;SDS011;7004;48.206;16.402;2024-02-14T00:17:34;7.80;;;3.90;;
13868;SDS011;7004;48.206;16.402;2024-02-14T00:20:03;8.80;;;4.07;;
13868;SDS011;7004;48.206;16.402;2024-02-14T00:22:31;9.70;;;4.23;;
13868;SDS011;7004;48.206;16.402;2024-02-14T00:24:58;6.87;;;3.70;;
13868;SDS011;7004;48.206;16.402;2024-02-14T00:27:24;6.87;;;3.57;;
13868;SDS011;7004;48.206;16.402;2024-02-14T00:29:52;6.83;;;4.10;;
13868;SDS011;7004;48.206;16.402;2024-02-14T00:32:19;5.83;;;3.77;;
13868;SDS011;7004;48.206;16.402;2024-02-14T00:34:49;7.70;;;3.70;;
13868;SDS011;7004;48.206;16.402;2024-02-14T00:37:15;6.20;;;4.20;;
13868;SDS011;7004;48.206;16.402;2024-02-14T00:39:42;6.63;;;4.10;;
13868;SDS011;7004;48.206;16.402;2024-02-14T00:42:10;8.93;;;3.70;;
13868;SDS011;7004;48.206;16.402;2024-02-14T00:44:37;6.53;;;4.27;;
13868;SDS011;7004;48.206;16.402;2024-02-14T00:47:03;7.17;;;3.97;;
13868;SDS011;7004;48.206;16.402;2024-02-14T00:49:29;7.47;;;4.23;;
13868;SDS011;7004;48.206;16.402;2024-02-14T00:51:58;5.70;;;3.60;;
13868;SDS011;7004;48.206;16.402;2024-02-14T00:54:24;7.17;;;3.87;;
13868;SDS011;7004;48.206;16.402;2024-02-14T00:56:51;8.33;;;4.20;;
13868;SDS011;7004;48.206;16.402;2024-02-14T00:59:17;5.23;;;4.13;;
13868;SDS011;7004;48.206;16.402;2024-02-14T01:01:43;12.70;;;4.33;;
13868;SDS011;7004;48.206;16.402;2024-02-14T01:04:12;10.23;;;4.90;;
13868;SDS011;7004;48.206;16.402;2024-02-14T01:06:43;6.73;;;4.67;;
13868;SDS011;7004;48.206;16.402;2024-02-14T01:09:27;6.93;;;4.53;;
13868;SDS011;7004;48.206;16.402;2024-02-14T01:11:58;9.23;;;4.80;;
13868;SDS011;7004;48.206;16.402;2024-02-14T01:14:26;5.87;;;5.17;;
13868;SDS011;7004;48.206;16.402;2024-02-14T01:17:06;6.50;;;5.03;;
13868;SDS011;7004;48.206;16.402;2024-02-14T01:19:37;9.23;;;6.13;;
13868;SDS011;7004;48.206;16.402;2024-02-14T01:22:03;9.37;;;5.23;;
13868;SDS011;7004;48.206;16.402;2024-02-14T01:24:36;8.90;;;5.27;;
13868;SDS011;7004;48.206;16.402;2024-02-14T01:27:06;7.73;;;5.67;;
13868;SDS011;7004;48.206;16.402;2024-02-14T01:29:50;6.70;;;5.33;;
13868;SDS011;7004;48.206;16.402;2024-02-14T01:32:28;7.37;;;5.10;;
13868;SDS011;7004;48.206;16.402;2024-02-14T01:35:14;7.07;;;5.17;;
13868;SDS011;7004;48.206;16.402;2024-02-14T01:37:55;5.80;;;5.07;;
13868;SDS011;7004;48.206;16.402;2024-02-14T01:40:25;6.73;;;5.23;;
13868;SDS011;7004;48.206;16.402;2024-02-14T01:42:54;9.47;;;5.83;;
13868;SDS011;7004;48.206;16.402;2024-02-14T01:45:23;8.47;;;5.57;;
13868;SDS011;7004;48.206;16.402;2024-02-14T01:48:02;9.23;;;5.60;;
13868;SDS011;7004;48.206;16.402;2024-02-14T01:50:38;7.83;;;5.97;;
13868;SDS011;7004;48.206;16.402;2024-02-14T01:53:13;9.60;;;5.27;;
13868;SDS011;7004;48.206;16.402;2024-02-14T01:55:45;8.10;;;5.13;;
13868;SDS011;7004;48.206;16.402;2024-02-14T01:58:16;12.73;;;5.70;;
13868;SDS011;7004;48.206;16.402;2024-02-14T02:00:49;9.53;;;5.60;;
13868;SDS011;7004;48.206;16.402;2024-02-14T02:03:29;5.77;;;5.13;;
13868;SDS011;7004;48.206;16.402;2024-02-14T02:05:55;8.33;;;5.73;;
13868;SDS011;7004;48.206;16.402;2024-02-14T02:08:24;6.73;;;5.40;;
13868;SDS011;7004;48.206;16.402;2024-02-14T02:10:51;7.67;;;5.97;;
13868;SDS011;7004;48.206;16.402;2024-02-14T02:13:17;9.53;;;5.60;;
13868;SDS011;7004;48.206;16.402;2024-02-14T02:15:45;8.43;;;5.57;;
13868;SDS011;7004;48.206;16.402;2024-02-14T02:18:12;7.63;;;5.70;;
13868;SDS011;7004;48.206;16.402;2024-02-14T02:20:41;7.77;;;5.90;;
13868;SDS011;7004;48.206;16.402;2024-02-14T02:23:11;6.13;;;5.53;;
13868;SDS011;7004;48.206;16.402;2024-02-14T02:25:41;12.53;;;5.83;;
13868;SDS011;7004;48.206;16.402;2024-02-14T02:28:08;7.93;;;5.73;;
13868;SDS011;7004;48.206;16.402;2024-02-14T02:30:35;10.43;;;5.70;;
13868;SDS011;7004;48.206;16.402;2024-02-14T02:33:04;7.40;;;5.60;;
13868;SDS011;7004;48.206;16.402;2024-02-14T02:35:32;6.77;;;5.30;;
13868;SDS011;7004;48.206;16.402;2024-02-14T02:38:00;8.03;;;5.43;;
13868;SDS011;7004;48.206;16.402;2024-02-14T02:40:26;7.07;;;5.77;;
13868;SDS011;7004;48.206;16.402;2024-02-14T02:42:55;9.23;;;6.10;;
13868;SDS011;7004;48.206;16.402;2024-02-14T02:45:21;9.67;;;5.73;;
13868;SDS011;7004;48.206;16.402;2024-02-14T02:47:50;10.10;;;6.03;;
13868;SDS011;7004;48.206;16.402;2024-02-14T02:50:17;8.80;;;5.70;;
13868;SDS011;7004;48.206;16.402;2024-02-14T02:52:47;8.47;;;5.33;;
13868;SDS011;7004;48.206;16.402;2024-02-14T02:55:14;6.50;;;5.10;;
13868;SDS011;7004;48.206;16.402;2024-02-14T02:57:46;5.93;;;4.93;;
13868;SDS011;7004;48.206;16.402;2024-02-14T03:00:12;8.50;;;5.73;;
13868;SDS011;7004;48.206;16.402;2024-02-14T03:02:39;7.83;;;5.20;;
13868;SDS011;7004;48.206;16.402;2024-02-14T03:05:10;8.60;;;5.10;;
13868;SDS011;7004;48.206;16.402;2024-02-14T03:07:45;7.30;;;5.73;;
13868;SDS011;7004;48.206;16.402;2024-02-14T03:10:12;12.07;;;5.33;;
13868;SDS011;7004;48.206;16.402;2024-02-14T03:12:42;6.87;;;5.20;;
13868;SDS011;7004;48.206;16.402;2024-02-14T03:15:21;8.77;;;5.00;;
13868;SDS011;7004;48.206;16.402;2024-02-14T03:17:51;10.53;;;6.03;;
13868;SDS011;7004;48.206;16.402;2024-02-14T03:20:18;8.97;;;5.37;;
13868;SDS011;7004;48.206;16.402;2024-02-14T03:22:49;7.77;;;5.43;;
13868;SDS011;7004;48.206;16.402;2024-02-14T03:25:17;8.57;;;6.20;;
13868;SDS011;7004;48.206;16.402;2024-02-14T03:27:48;6.20;;;5.17;;
13868;SDS011;7004;48.206;16.402;2024-02-14T03:30:21;9.97;;;5.80;;
13868;SDS011;7004;48.206;16.402;2024-02-14T03:32:48;9.07;;;5.40;;
13868;SDS011;7004;48.206;16.402;2024-02-14T03:35:15;8.93;;;5.50;;
13868;SDS011;7004;48.206;16.402;2024-02-14T03:37:45;7.47;;;5.07;;
13868;SDS011;7004;48.206;16.402;2024-02-14T03:40:15;8.10;;;5.77;;
13868;SDS011;7004;48.206;16.402;2024-02-14T03:42:43;10.47;;;5.20;;
13868;SDS011;7004;48.206;16.402;2024-02-14T03:45:13;8.67;;;5.17;;
13868;SDS011;7004;48.206;16.402;2024-02-14T03:47:40;7.77;;;5.17;;
13868;SDS011;7004;48.206;16.402;2024-02-14T03:50:10;5.90;;;4.40;;
13868;SDS011;7004;48.206;16.402;2024-02-14T03:52:37;9.43;;;4.80;;
13868;SDS011;7004;48.206;16.402;2024-02-14T03:55:04;6.83;;;4.63;;
13868;SDS011;7004;48.206;16.402;2024-02-14T03:57:33;14.03;;;5.30;;
13868;SDS011;7004;48.206;16.402;2024-02-14T04:00:01;9.07;;;5.00;;
13868;SDS011;7004;48.206;16.402;2024-02-14T04:02:30;6.13;;;4.73;;
13868;SDS011;7004;48.206;16.402;2024-02-14T04:04:57;6.07;;;4.63;;
13868;SDS011;7004;48.206;16.402;2024-02-14T04:07:23;7.10;;;4.37;;
13868;SDS011;7004;48.206;16.402;2024-02-14T04:09:49;8.23;;;4.77;;
13868;SDS011;7004;48.206;16.402;2024-02-14T04:12:17;9.37;;;4.43;;
13868;SDS011;7004;48.206;16.402;2024-02-14T04:14:44;7.80;;;4.70;;
13868;SDS011;7004;48.206;16.402;2024-02-14T04:17:10;9.10;;;4.70;;
13868;SDS011;7004;48.206;16.402;2024-02-14T04:19:38;11.03;;;5.10;;
13868;SDS011;7004;48.206;16.402;2024-02-14T04:22:05;5.17;;;4.00;;
13868;SDS011;7004;48.206;16.402;2024-02-14T04:24:33;5.87;;;4.33;;
13868;SDS011;7004;48.206;16.402;2024-02-14T04:27:00;5.90;;;4.47;;
13868;SDS011;7004;48.206;16.402;2024-02-14T04:29:28;6.27;;;3.97;;
13868;SDS011;7004;48.206;16.402;2024-02-14T04:31:56;6.93;;;4.73;;
13868;SDS011;7004;48.206;16.402;2024-02-14T04:34:23;7.30;;;4.87;;
13868;SDS011;7004;48.206;16.402;2024-02-14T04:36:49;8.30;;;4.50;;
13868;SDS011;7004;48.206;16.402;2024-02-14T04:39:15;5.30;;;4.70;;
13868;SDS011;7004;48.206;16.402;2024-02-14T04:41:41;8.17;;;5.33;;
13868;SDS011;7004;48.206;16.402;2024-02-14T04:44:07;6.57;;;4.87;;
13868;SDS011;7004;48.206;16.402;2024-02-14T04:46:33;6.40;;;5.17;;
13868;SDS011;7004;48.206;16.402;2024-02-14T04:49:01;6.20;;;4.80;;
13868;SDS011;7004;48.206;16.402;2024-02-14T04:51:30;7.60;;;5.03;;
13868;SDS011;7004;48.206;16.402;2024-02-14T04:53:57;9.20;;;4.97;;
13868;SDS011;7004;48.206;16.402;2024-02-14T04:56:26;10.27;;;4.63;;
13868;SDS011;7004;48.206;16.402;2024-02-14T04:58:53;8.00;;;5.23;;
13868;SDS011;7004;48.206;16.402;2024-02-14T05:01:22;5.60;;;4.53;;
13868;SDS011;7004;48.206;16.402;2024-02-14T05:03:50;8.23;;;5.20;;
13868;SDS011;7004;48.206;16.402;2024-02-14T05:06:16;8.47;;;5.10;;
13868;SDS011;7004;48.206;16.402;2024-02-14T05:08:43;8.53;;;5.23;;
13868;SDS011;7004;48.206;16.402;2024-02-14T05:11:09;6.80;;;5.13;;
13868;SDS011;7004;48.206;16.402;2024-02-14T05:13:35;8.37;;;5.00;;
13868;SDS011;7004;48.206;16.402;2024-02-14T05:16:03;10.70;;;5.53;;
13868;SDS011;7004;48.206;16.402;2024-02-14T05:18:30;9.73;;;5.10;;
13868;SDS011;7004;48.206;16.402;2024-02-14T05:20:56;7.37;;;5.23;;
13868;SDS011;7004;48.206;16.402;2024-02-14T05:23:23;7.97;;;6.03;;
13868;SDS011;7004;48.206;16.402;2024-02-14T05:25:49;11.07;;;5.07;;
13868;SDS011;7004;48.206;16.402;2024-02-14T05:28:16;10.10;;;5.17;;
13868;SDS011;7004;48.206;16.402;2024-02-14T05:30:44;10.30;;;5.57;;
13868;SDS011;7004;48.206;16.402;2024-02-14T05:33:10;12.70;;;4.97;;
13868;SDS011;7004;48.206;16.402;2024-02-14T05:35:36;8.17;;;5.43;;
13868;SDS011;7004;48.206;16.402;2024-02-14T05:38:03;7.97;;;5.30;;
13868;SDS011;7004;48.206;16.402;2024-02-14T05:40:33;9.30;;;5.27;;
13868;SDS011;7004;48.206;16.402;2024-02-14T05:42:59;11.70;;;5.60;;
13868;SDS011;7004;48.206;16.402;2024-02-14T05:45:27;7.57;;;4.97;;
13868;SDS011;7004;48.206;16.402;2024-02-14T05:47:53;10.93;;;6.27;;
13868;SDS011;7004;48.206;16.402;2024-02-14T05:50:19;7.73;;;5.20;;
13868;SDS011;7004;48.206;16.402;2024-02-14T05:52:45;6.30;;;4.87;;
13868;SDS011;7004;48.206;16.402;2024-02-14T05:55:11;10.30;;;5.47;;
13868;SDS011;7004;48.206;16.402;2024-02-14T05:57:38;8.37;;;4.73;;
13868;SDS011;7004;48.206;16.402;2024-02-14T06:00:04;9.60;;;5.60;;
13868;SDS011;7004;48.206;16.402;2024-02-14T06:02:33;10.90;;;6.30;;
13868;SDS011;7004;48.206;16.402;2024-02-14T06:04:59;8.60;;;6.10;;
13868;SDS011;7004;48.206;16.402;2024-02-14T06:07:25;9.33;;;6.23;;
13868;SDS011;7004;48.206;16.402;2024-02-14T06:09:51;11.10;;;6.93;;
13868;SDS011;7004;48.206;16.402;2024-02-14T06:12:17;13.03;;;6.73;;
13868;SDS011;7004;48.206;16.402;2024-02-14T06:14:43;10.20;;;7.00;;
13868;SDS011;7004;48.206;16.402;2024-02-14T06:17:09;10.83;;;6.80;;
13868;SDS011;7004;48.206;16.402;2024-02-14T06:19:35;10.20;;;7.03;;
13868;SDS011;7004;48.206;16.402;2024-02-14T06:22:02;10.47;;;7.20;;
13868;SDS011;7004;48.206;16.402;2024-02-14T06:24:29;9.73;;;7.37;;
13868;SDS011;7004;48.206;16.402;2024-02-14T06:26:55;14.77;;;7.27;;
13868;SDS011;7004;48.206;16.402;2024-02-14T06:29:21;11.70;;;7.10;;
13868;SDS011;7004;48.206;16.402;2024-02-14T06:31:47;11.57;;;7.20;;
13868;SDS011;7004;48.206;16.402;2024-02-14T06:34:14;13.53;;;6.87;;
13868;SDS011;7004;48.206;16.402;2024-02-14T06:36:40;12.47;;;7.27;;
13868;SDS011;7004;48.206;16.402;2024-02-14T06:39:07;9.13;;;6.97;;
13868;SDS011;7004;48.206;16.402;2024-02-14T06:41:33;10.20;;;6.80;;
13868;SDS011;7004;48.206;16.402;2024-02-14T06:43:59;11.00;;;7.53;;
13868;SDS011;7004;48.206;16.402;2024-02-14T06:46:25;13.50;;;6.83;;
13868;SDS011;7004;48.206;16.402;2024-02-14T06:48:51;11.80;;;7.57;;
13868;SDS011;7004;48.206;16.402;2024-02-14T06:51:17;11.37;;;7.40;;
13868;SDS011;7004;48.206;16.402;2024-02-14T06:53:45;10.03;;;6.73;;
13868;SDS011;7004;48.206;16.402;2024-02-14T06:56:12;12.93;;;6.67;;
13868;SDS011;7004;48.206;16.402;2024-02-14T06:58:38;12.33;;;7.00;;
13868;SDS011;7004;48.206;16.402;2024-02-14T07:01:04;11.40;;;8.13;;
13868;SDS011;7004;48.206;16.402;2024-02-14T07:03:30;14.63;;;7.70;;
13868;SDS011;7004;48.206;16.402;2024-02-14T07:05:57;12.10;;;7.97;;
13868;SDS011;7004;48.206;16.402;2024-02-14T07:08:23;10.80;;;8.03;;
13868;SDS011;7004;48.206;16.402;2024-02-14T07:10:51;12.00;;;7.20;;
13868;SDS011;7004;48.206;16.402;2024-02-14T07:13:17;11.97;;;7.43;;
13868;SDS011;7004;48.206;16.402;2024-02-14T07:15:44;14.40;;;8.00;;
13868;SDS011;7004;48.206;16.402;2024-02-14T07:18:10;13.27;;;7.73;;
13868;SDS011;7004;48.206;16.402;2024-02-14T07:20:36;11.63;;;7.27;;
13868;SDS011;7004;48.206;16.402;2024-02-14T07:23:02;13.90;;;8.03;;
13868;SDS011;7004;48.206;16.402;2024-02-14T07:25:29;10.10;;;7.50;;
13868;SDS011;7004;48.206;16.402;2024-02-14T07:27:55;12.67;;;7.60;;
13868;SDS011;7004;48.206;16.402;2024-02-14T07:30:22;12.03;;;7.03;;
13868;SDS011;7004;48.206;16.402;2024-02-14T07:32:48;13.47;;;7.90;;
13868;SDS011;7004;48.206;16.402;2024-02-14T07:35:16;9.33;;;7.00;;
13868;SDS011;7004;48.206;16.402;2024-02-14T07:37:43;17.17;;;8.10;;
13868;SDS011;7004;48.206;16.402;2024-02-14T07:40:09;16.50;;;8.17;;
13868;SDS011;7004;48.206;16.402;2024-02-14T07:42:36;14.73;;;7.30;;
13868;SDS011;7004;48.206;16.402;2024-02-14T07:45:02;13.70;;;7.40;;
13868;SDS011;7004;48.206;16.402;2024-02-14T07:47:29;9.10;;;7.43;;
13868;SDS011;7004;48.206;16.402;2024-02-14T07:49:55;10.57;;;7.33;;
13868;SDS011;7004;48.206;16.402;2024-02-14T07:52:22;10.73;;;8.10;;
13868;SDS011;7004;48.206;16.402;2024-02-14T07:54:52;14.17;;;8.10;;
13868;SDS011;7004;48.206;16.402;2024-02-14T07:57:20;15.33;;;8.23;;
13868;SDS011;7004;48.206;16.402;2024-02-14T07:59:47;13.93;;;8.07;;
13868;SDS011;7004;48.206;16.402;2024-02-14T08:02:14;18.13;;;8.20;;
13868;SDS011;7004;48.206;16.402;2024-02-14T08:04:40;17.93;;;8.37;;
13868;SDS011;7004;48.206;16.402;2024-02-14T08:07:06;20.27;;;8.10;;
13868;SDS011;7004;48.206;16.402;2024-02-14T08:09:32;18.67;;;9.67;;
13868;SDS011;7004;48.206;16.402;2024-02-14T08:11:58;11.67;;;7.77;;
13868;SDS011;7004;48.206;16.402;2024-02-14T08:14:24;17.27;;;7.40;;
13868;SDS011;7004;48.206;16.402;2024-02-14T08:16:50;16.90;;;7.10;;
13868;SDS011;7004;48.206;16.402;2024-02-14T08:19:17;11.73;;;7.07;;
13868;SDS011;7004;48.206;16.402;2024-02-14T08:21:44;9.33;;;6.20;;
13868;SDS011;7004;48.206;16.402;2024-02-14T08:24:10;13.07;;;6.97;;
13868;SDS011;7004;48.206;16.402;2024-02-14T08:26:36;16.10;;;7.17;;
13868;SDS011;7004;48.206;16.402;2024-02-14T08:29:02;11.87;;;6.60;;
13868;SDS011;7004;48.206;16.402;2024-02-14T08:31:29;12.67;;;6.90;;
13868;SDS011;7004;48.206;16.402;2024-02-14T08:33:56;17.13;;;6.80;;
13868;SDS011;7004;48.206;16.402;2024-02-14T08:36:22;12.83;;;7.17;;
13868;SDS011;7004;48.206;16.402;2024-02-14T08:38:48;16.50;;;7.77;;
13868;SDS011;7004;48.206;16.402;2024-02-14T08:41:14;19.30;;;7.47;;
13868;SDS011;7004;48.206;16.402;2024-02-14T08:43:40;12.73;;;6.90;;
13868;SDS011;7004;48.206;16.402;2024-02-14T08:46:10;9.00;;;6.40;;
13868;SDS011;7004;48.206;16.402;2024-02-14T08:48:37;12.20;;;6.87;;
13868;SDS011;7004;48.206;16.402;2024-02-14T08:51:07;11.53;;;6.90;;
13868;SDS011;7004;48.206;16.402;2024-02-14T08:53:34;13.97;;;6.80;;
13868;SDS011;7004;48.206;16.402;2024-02-14T08:56:01;15.30;;;6.97;;
13868;SDS011;7004;48.206;16.402;2024-02-14T08:58:28;10.20;;;6.70;;
13868;SDS011;7004;48.206;16.402;2024-02-14T09:00:54;13.73;;;6.30;;
13868;SDS011;7004;48.206;16.402;2024-02-14T09:03:20;13.37;;;6.00;;
13868;SDS011;7004;48.206;16.402;2024-02-14T09:05:46;14.80;;;5.93;;
13868;SDS011;7004;48.206;16.402;2024-02-14T09:08:13;17.60;;;6.50;;
13868;SDS011;7004;48.206;16.402;2024-02-14T09:10:39;16.10;;;6.87;;
13868;SDS011;7004;48.206;16.402;2024-02-14T09:13:05;9.13;;;5.43;;
13868;SDS011;7004;48.206;16.402;2024-02-14T09:15:32;10.83;;;5.73;;
13868;SDS011;7004;48.206;16.402;2024-02-14T09:17:59;12.30;;;5.57;;
13868;SDS011;7004;48.206;16.402;2024-02-14T09:20:25;10.40;;;5.43;;
13868;SDS011;7004;48.206;16.402;2024-02-14T09:22:51;9.43;;;5.30;;
13868;SDS011;7004;48.206;16.402;2024-02-14T09:25:19;8.23;;;4.37;;
13868;SDS011;7004;48.206;16.402;2024-02-14T09:27:45;9.30;;;4.27;;
13868;SDS011;7004;48.206;16.402;2024-02-14T09:30:12;8.17;;;3.93;;
13868;SDS011;7004;48.206;16.402;2024-02-14T09:32:39;13.90;;;3.77;;
13868;SDS011;7004;48.206;16.402;2024-02-14T09:35:05;6.57;;;3.13;;
13868;SDS011;7004;48.206;16.402;2024-02-14T09:37:33;6.43;;;3.03;;
13868;SDS011;7004;48.206;16.402;2024-02-14T09:39:59;4.13;;;2.40;;
13868;SDS011;7004;48.206;16.402;2024-02-14T09:42:28;6.00;;;2.60;;
13868;SDS011;7004;48.206;16.402;2024-02-14T09:45:09;4.70;;;3.07;;
13868;SDS011;7004;48.206;16.402;2024-02-14T09:47:36;4.03;;;2.67;;
13868;SDS011;7004;48.206;16.402;2024-02-14T09:50:05;5.93;;;2.70;;
13868;SDS011;7004;48.206;16.402;2024-02-14T09:52:33;4.93;;;2.20;;
13868;SDS011;7004;48.206;16.402;2024-02-14T09:55:00;5.60;;;2.57;;
13868;SDS011;7004;48.206;16.402;2024-02-14T09:57:29;5.90;;;2.70;;
13868;SDS011;7004;48.206;16.402;2024-02-14T09:59:56;4.80;;;2.33;;
13868;SDS011;7004;48.206;16.402;2024-02-14T10:02:24;5.93;;;2.63;;
13868;SDS011;7004;48.206;16.402;2024-02-14T10:04:50;5.63;;;2.23;;
13868;SDS011;7004;48.206;16.402;2024-02-14T10:07:16;4.23;;;2.23;;
13868;SDS011;7004;48.206;16.402;2024-02-14T10:09:44;4.63;;;2.57;;
13868;SDS011;7004;48.206;16.402;2024-02-14T10:12:10;4.37;;;2.00;;
13868;SDS011;7004;48.206;16.402;2024-02-14T10:14:37;5.70;;;2.40;;
13868;SDS011;7004;48.206;16.402;2024-02-14T10:17:06;6.47;;;2.00;;
13868;SDS011;7004;48.206;16.402;2024-02-14T10:19:35;5.50;;;2.67;;
13868;SDS011;7004;48.206;16.402;2024-02-14T10:22:01;5.10;;;2.20;;
13868;SDS011;7004;48.206;16.402;2024-02-14T10:24:30;4.00;;;2.57;;
13868;SDS011;7004;48.206;16.402;2024-02-14T10:26:58;5.03;;;2.23;;
13868;SDS011;7004;48.206;16.402;2024-02-14T10:29:25;8.90;;;2.10;;
13868;SDS011;7004;48.206;16.402;2024-02-14T10:31:53;5.17;;;2.20;;
13868;SDS011;7004;48.206;16.402;2024-02-14T10:34:19;7.90;;;2.03;;
13868;SDS011;7004;48.206;16.402;2024-02-14T10:36:53;6.97;;;2.30;;
13868;SDS011;7004;48.206;16.402;2024-02-14T10:39:24;5.33;;;2.27;;
13868;SDS011;7004;48.206;16.402;2024-02-14T10:41:52;6.47;;;2.50;;
13868;SDS011;7004;48.206;16.402;2024-02-14T10:44:19;4.53;;;2.30;;
13868;SDS011;7004;48.206;16.402;2024-02-14T10:46:46;6.17;;;2.23;;
13868;SDS011;7004;48.206;16.402;2024-02-14T10:49:14;6.10;;;2.33;;
13868;SDS011;7004;48.206;16.402;2024-02-14T10:51:42;6.07;;;2.80;;
13868;SDS011;7004;48.206;16.402;2024-02-14T10:54:10;3.60;;;2.23;;
13868;SDS011;7004;48.206;16.402;2024-02-14T10:56:45;3.67;;;2.30;;
13868;SDS011;7004;48.206;16.402;2024-02-14T10:59:19;4.70;;;2.17;;
13868;SDS011;7004;48.206;16.402;2024-02-14T11:01:49;5.00;;;2.30;;
13868;SDS011;7004;48.206;16.402;2024-02-14T11:04:17;5.33;;;2.30;;
13868;SDS011;7004;48.206;16.402;2024-02-14T11:06:47;4.07;;;2.40;;
13868;SDS011;7004;48.206;16.402;2024-02-14T11:09:18;6.60;;;2.30;;
13868;SDS011;7004;48.206;16.402;2024-02-14T11:11:44;3.77;;;2.40;;
13868;SDS011;7004;48.206;16.402;2024-02-14T11:14:18;6.23;;;2.27;;
13868;SDS011;7004;48.206;16.402;2024-02-14T11:16:45;4.50;;;2.80;;
13868;SDS011;7004;48.206;16.402;2024-02-14T11:19:11;4.93;;;2.60;;
13868;SDS011;7004;48.206;16.402;2024-02-14T11:21:42;3.93;;;2.30;;
13868;SDS011;7004;48.206;16.402;2024-02-14T11:24:12;2.33;;;1.97;;
13868;SDS011;7004;48.206;16.402;2024-02-14T11:26:49;8.20;;;2.43;;
13868;SDS011;7004;48.206;16.402;2024-02-14T11:29:20;4.57;;;1.70;;
13868;SDS011;7004;48.206;16.402;2024-02-14T11:31:46;5.03;;;2.40;;
13868;SDS011;7004;48.206;16.402;2024-02-14T11:34:16;8.10;;;2.40;;
13868;SDS011;7004;48.206;16.402;2024-02-14T11:36:43;4.83;;;2.43;;
13868;SDS011;7004;48.206;16.402;2024-02-14T11:39:10;3.67;;;2.20;;
13868;SDS011;7004;48.206;16.402;2024-02-14T11:41:40;4.10;;;2.10;;
13868;SDS011;7004;48.206;16.402;2024-02-14T11:44:07;3.93;;;2.23;;
13868;SDS011;7004;48.206;16.402;2024-02-14T11:46:35;5.93;;;2.40;;
13868;SDS011;7004;48.206;16.402;2024-02-14T11:49:02;5.10;;;2.50;;
13868;SDS011;7004;48.206;16.402;2024-02-14T11:51:31;5.90;;;2.20;;
13868;SDS011;7004;48.206;16.402;2024-02-14T11:54:01;9.60;;;2.40;;
13868;SDS011;7004;48.206;16.402;2024-02-14T11:56:33;6.00;;;2.30;;
13868;SDS011;7004;48.206;16.402;2024-02-14T11:59:04;5.77;;;2.00;;
13868;SDS011;7004;48.206;16.402;2024-02-14T12:01:36;5.40;;;2.10;;
13868;SDS011;7004;48.206;16.402;2024-02-14T12:04:07;10.50;;;1.90;;
13868;SDS011;7004;48.206;16.402;2024-02-14T12:06:35;2.47;;;2.00;;
13868;SDS011;7004;48.206;16.402;2024-02-14T12:09:03;4.13;;;2.30;;
13868;SDS011;7004;48.206;16.402;2024-02-14T12:11:34;3.87;;;1.97;;
13868;SDS011;7004;48.206;16.402;2024-02-14T12:14:05;7.13;;;1.80;;
13868;SDS011;7004;48.206;16.402;2024-02-14T12:16:36;4.43;;;2.37;;
13868;SDS011;7004;48.206;16.402;2024-02-14T12:19:14;7.60;;;2.70;;
13868;SDS011;7004;48.206;16.402;2024-02-14T12:21:41;5.53;;;2.00;;
13868;SDS011;7004;48.206;16.402;2024-02-14T12:24:09;5.10;;;2.10;;
13868;SDS011;7004;48.206;16.402;2024-02-14T12:26:38;7.17;;;2.20;;
13868;SDS011;7004;48.206;16.402;2024-02-14T12:29:05;10.43;;;2.50;;
13868;SDS011;7004;48.206;16.402;2024-02-14T12:31:34;9.37;;;2.53;;
13868;SDS011;7004;48.206;16.402;2024-02-14T12:34:02;51.97;;;6.43;;
13868;SDS011;7004;48.206;16.402;2024-02-14T12:36:30;15.60;;;2.80;;
13868;SDS011;7004;48.206;16.402;2024-02-14T12:39:03;6.17;;;1.80;;
13868;SDS011;7004;48.206;16.402;2024-02-14T12:41:30;2.73;;;1.80;;
13868;SDS011;7004;48.206;16.402;2024-02-14T12:43:58;3.03;;;1.73;;
13868;SDS011;7004;48.206;16.402;2024-02-14T12:46:25;2.77;;;1.53;;
13868;SDS011;7004;48.206;16.402;2024-02-14T12:48:52;4.40;;;1.60;;
13868;SDS011;7004;48.206;16.402;2024-02-14T12:51:19;9.27;;;2.10;;
13868;SDS011;7004;48.206;16.402;2024-02-14T12:53:45;2.43;;;1.33;;
13868;SDS011;7004;48.206;16.402;2024-02-14T12:56:12;2.80;;;1.40;;
13868;SDS011;7004;48.206;16.402;2024-02-14T12:58:38;4.00;;;1.60;;
13868;SDS011;7004;48.206;16.402;2024-02-14T13:01:04;4.47;;;1.50;;
13868;SDS011;7004;48.206;16.402;2024-02-14T13:03:32;6.03;;;1.67;;
13868;SDS011;7004;48.206;16.402;2024-02-14T13:05:59;5.50;;;1.93;;
13868;SDS011;7004;48.206;16.402;2024-02-14T13:08:25;2.80;;;1.40;;
13868;SDS011;7004;48.206;16.402;2024-02-14T13:10:52;3.60;;;1.60;;
13868;SDS011;7004;48.206;16.402;2024-02-14T13:13:18;3.70;;;1.77;;
13868;SDS011;7004;48.206;16.402;2024-02-14T13:15:45;11.20;;;2.53;;
13868;SDS011;7004;48.206;16.402;2024-02-14T13:18:11;12.40;;;2.80;;
13868;SDS011;7004;48.206;16.402;2024-02-14T13:20:37;6.70;;;1.67;;
13868;SDS011;7004;48.206;16.402;2024-02-14T13:23:04;13.10;;;3.33;;
13868;SDS011;7004;48.206;16.402;2024-02-14T13:25:34;5.73;;;1.90;;
13868;SDS011;7004;48.206;16.402;2024-02-14T13:28:03;9.47;;;2.87;;
13868;SDS011;7004;48.206;16.402;2024-02-14T13:30:31;10.87;;;2.53;;
13868;SDS011;7004;48.206;16.402;2024-02-14T13:32:58;9.23;;;2.50;;
13868;SDS011;7004;48.206;16.402;2024-02-14T13:35:24;10.90;;;2.70;;
13868;SDS011;7004;48.206;16.402;2024-02-14T13:37:50;7.00;;;2.10;;
13868;SDS011;7004;48.206;16.402;2024-02-14T13:40:16;5.13;;;1.90;;
13868;SDS011;7004;48.206;16.402;2024-02-14T13:42:43;3.77;;;2.17;;
13868;SDS011;7004;48.206;16.402;2024-02-14T13:45:09;4.30;;;2.00;;
13868;SDS011;7004;48.206;16.402;2024-02-14T13:47:35;6.03;;;1.80;;
13868;SDS011;7004;48.206;16.402;2024-02-14T13:50:05;2.67;;;1.77;;
13868;SDS011;7004;48.206;16.402;2024-02-14T13:52:34;5.93;;;2.00;;
13868;SDS011;7004;48.206;16.402;2024-02-14T13:55:04;2.93;;;2.10;;
13868;SDS011;7004;48.206;16.402;2024-02-14T13:57:36;4.97;;;2.07;;
13868;SDS011;7004;48.206;16.402;2024-02-14T14:00:03;1.97;;;1.77;;
13868;SDS011;7004;48.206;16.402;2024-02-14T14:02:38;4.83;;;1.83;;
13868;SDS011;7004;48.206;16.402;2024-02-14T14:05:07;4.10;;;2.10;;
13868;SDS011;7004;48.206;16.402;2024-02-14T14:07:36;2.67;;;1.70;;
13868;SDS011;7004;48.206;16.402;2024-02-14T14:10:04;4.30;;;1.73;;
13868;SDS011;7004;48.206;16.402;2024-02-14T14:12:32;5.63;;;1.97;;
13868;SDS011;7004;48.206;16.402;2024-02-14T14:15:01;3.13;;;1.77;;
13868;SDS011;7004;48.206;16.402;2024-02-14T14:17:29;3.10;;;1.70;;
13868;SDS011;7004;48.206;16.402;2024-02-14T14:19:55;4.10;;;1.97;;
13868;SDS011;7004;48.206;16.402;2024-02-14T14:22:22;4.73;;;2.13;;
13868;SDS011;7004;48.206;16.402;2024-02-14T14:24:48;3.43;;;2.10;;
13868;SDS011;7004;48.206;16.402;2024-02-14T14:27:14;6.70;;;1.90;;
13868;SDS011;7004;48.206;16.402;2024-02-14T14:29:41;6.07;;;1.93;;
13868;SDS011;7004;48.206;16.402;2024-02-14T14:32:08;6.17;;;2.17;;
13868;SDS011;7004;48.206;16.402;2024-02-14T14:34:35;3.40;;;2.00;;
13868;SDS011;7004;48.206;16.402;2024-02-14T14:37:02;4.30;;;1.80;;
13868;SDS011;7004;48.206;16.402;2024-02-14T14:39:28;3.73;;;1.80;;
13868;SDS011;7004;48.206;16.402;2024-02-14T14:41:56;3.80;;;2.10;;
13868;SDS011;7004;48.206;16.402;2024-02-14T14:44:24;5.77;;;2.63;;
13868;SDS011;7004;48.206;16.402;2024-02-14T14:46:51;4.23;;;2.23;;